Time;durP1;ratioP1;P1;durP2;ratioP2;P2;SDS_P1;SDS_P2;PMS_P1;PMS_P2;Temp;Humidity;BMP_temperature;BMP_pressure;BME280_temperature;BME280_humidity;BME280_pressure;Samples;Min_cycle;Max_cycle;Signal;HPM_P1;HPM_P2
2023/10/23 00:00:03;;;;;;;12.43;3.90;;;;;;;14.61;57.61;93611.19;528000;28;2049;-40
2023/10/23 00:00:19;;;;;;;10.88;4.10;;;;;;;14.66;57.66;93610.22;528108;28;854;-40
2023/10/23 00:00:34;;;;;;;10.27;4.57;;;;;;;14.61;57.69;93605.63;528130;28;849;-41
2023/10/23 00:00:49;;;;;;;8.73;4.20;;;;;;;14.64;57.81;93613.53;528086;28;963;-40
2023/10/23 00:01:05;;;;;;;11.30;4.13;;;;;;;14.65;57.69;93608.72;528053;28;1208;-40
2023/10/23 00:01:20;;;;;;;11.50;4.10;;;;;;;14.64;57.81;93618.38;528108;28;848;-40
2023/10/23 00:01:36;;;;;;;10.65;4.13;;;;;;;14.63;57.79;93619.69;528050;28;2407;-40
2023/10/23 00:01:52;;;;;;;11.57;4.32;;;;;;;14.63;57.83;93614.84;530230;28;1058;-40
2023/10/23 00:02:08;;;;;;;13.90;4.28;;;;;;;14.63;57.86;93620.41;530191;28;892;-40
2023/10/23 00:02:24;;;;;;;14.20;4.38;;;;;;;14.63;57.96;93617.63;530266;28;863;-40
2023/10/23 00:02:39;;;;;;;10.98;4.13;;;;;;;14.62;57.91;93610.59;530312;28;797;-40
2023/10/23 00:02:55;;;;;;;10.87;4.13;;;;;;;14.62;58.06;93618.22;530112;28;901;-40
2023/10/23 00:03:10;;;;;;;9.55;4.22;;;;;;;14.59;58.18;93622.88;530281;28;863;-40
2023/10/23 00:03:26;;;;;;;8.50;4.93;;;;;;;14.58;58.10;93620.66;530188;28;864;-40
2023/10/23 00:03:41;;;;;;;10.00;4.83;;;;;;;14.49;58.21;93613.69;530245;28;892;-40
2023/10/23 00:03:56;;;;;;;10.13;4.35;;;;;;;14.57;58.28;93616.41;530193;28;928;-40
2023/10/23 00:04:12;;;;;;;9.93;4.73;;;;;;;14.59;58.28;93624.91;530279;28;813;-40
2023/10/23 00:04:27;;;;;;;12.27;5.10;;;;;;;14.58;58.26;93615.81;530203;28;785;-40
2023/10/23 00:04:42;;;;;;;10.80;5.00;;;;;;;14.58;58.27;93623.41;530207;28;900;-40
2023/10/23 00:04:58;;;;;;;8.10;4.37;;;;;;;14.58;58.24;93618.59;530257;28;785;-40
2023/10/23 00:05:13;;;;;;;8.50;4.23;;;;;;;14.59;58.20;93616.56;530125;28;1038;-41
2023/10/23 00:05:29;;;;;;;8.07;4.22;;;;;;;14.60;58.20;93618.03;530234;28;1022;-40
2023/10/23 00:05:45;;;;;;;8.80;4.32;;;;;;;14.59;57.99;93617.31;530208;28;895;-40
2023/10/23 00:06:00;;;;;;;8.73;3.93;;;;;;;14.60;57.97;93624.31;530239;28;793;-41
2023/10/23 00:06:15;;;;;;;11.88;4.18;;;;;;;14.59;57.96;93627.69;530165;28;907;-40
2023/10/23 00:06:31;;;;;;;11.47;4.43;;;;;;;14.59;57.87;93622.88;530226;28;928;-40
2023/10/23 00:06:46;;;;;;;8.70;3.90;;;;;;;14.57;57.96;93622.72;530235;28;808;-40
2023/10/23 00:07:02;;;;;;;8.57;3.80;;;;;;;14.58;57.77;93623.41;530259;28;844;-40
2023/10/23 00:07:17;;;;;;;11.57;4.17;;;;;;;14.56;57.86;93623.25;530183;28;1029;-40
2023/10/23 00:07:32;;;;;;;11.23;4.40;;;;;;;14.56;57.84;93623.25;530195;28;832;-40
2023/10/23 00:07:48;;;;;;;10.05;4.47;;;;;;;14.56;57.91;93623.25;530198;28;873;-40
2023/10/23 00:08:03;;;;;;;8.87;4.03;;;;;;;14.53;57.96;93629.97;530167;28;853;-40
2023/10/23 00:08:19;;;;;;;8.60;3.97;;;;;;;14.53;58.09;93630.69;530194;28;900;-40
2023/10/23 00:08:34;;;;;;;10.23;4.00;;;;;;;14.53;58.05;93632.75;530307;28;852;-40
2023/10/23 00:08:49;;;;;;;12.70;4.10;;;;;;;14.53;58.03;93630.69;530235;28;920;-40
2023/10/23 00:09:05;;;;;;;10.15;4.00;;;;;;;14.51;57.93;93633.31;530240;28;848;-41
2023/10/23 00:09:20;;;;;;;5.90;3.83;;;;;;;14.51;58.19;93633.31;530281;28;841;-41
2023/10/23 00:09:36;;;;;;;8.15;3.80;;;;;;;14.43;58.13;93621.53;530261;28;981;-40
2023/10/23 00:09:51;;;;;;;8.33;3.77;;;;;;;14.51;58.05;93638.84;530173;28;878;-40
2023/10/23 00:10:07;;;;;;;7.23;3.63;;;;;;;14.51;57.99;93632.59;530227;28;813;-40
2023/10/23 00:10:23;;;;;;;10.13;3.72;;;;;;;14.52;57.97;93637.56;529848;28;1045;-40
2023/10/23 00:10:38;;;;;;;8.37;3.37;;;;;;;14.52;57.91;93640.34;530181;28;1086;-40
2023/10/23 00:10:53;;;;;;;4.63;2.90;;;;;;;14.52;57.87;93643.13;530271;28;908;-40
2023/10/23 00:11:09;;;;;;;5.32;2.80;;;;;;;14.53;57.84;93639.03;530270;28;817;-40
2023/10/23 00:11:26;;;;;;;4.20;2.43;;;;;;;14.52;57.85;93643.13;530146;28;781;-40
2023/10/23 00:11:41;;;;;;;4.15;2.45;;;;;;;14.53;57.79;93641.09;530310;28;852;-40
2023/10/23 00:11:56;;;;;;;5.37;3.00;;;;;;;14.54;57.72;93632.16;530204;28;871;-40
2023/10/23 00:12:12;;;;;;;9.77;3.90;;;;;;;14.53;58.09;93641.81;530222;28;893;-40
2023/10/23 00:12:27;;;;;;;9.15;3.70;;;;;;;14.50;57.64;93631.84;530277;28;883;-40
2023/10/23 00:12:43;;;;;;;6.00;3.13;;;;;;;14.52;57.74;93634.78;530216;28;1030;-40
2023/10/23 00:12:58;;;;;;;5.90;3.13;;;;;;;14.53;57.74;93643.88;530120;28;897;-41
2023/10/23 00:13:13;;;;;;;5.17;2.93;;;;;;;14.51;57.70;93638.16;530147;28;880;-40
2023/10/23 00:13:29;;;;;;;6.13;3.10;;;;;;;14.52;57.54;93637.56;530272;28;828;-40
2023/10/23 00:13:44;;;;;;;7.68;2.83;;;;;;;14.51;57.76;93638.16;530193;28;842;-40
2023/10/23 00:13:59;;;;;;;6.83;2.77;;;;;;;14.40;57.82;93628.25;530211;28;947;-40
2023/10/23 00:14:15;;;;;;;4.97;3.23;;;;;;;14.49;57.83;93637.97;530285;28;819;-40
2023/10/23 00:14:30;;;;;;;10.10;3.90;;;;;;;14.48;57.95;93640.00;530212;28;1037;-41
2023/10/23 00:14:45;;;;;;;11.47;3.93;;;;;;;14.47;58.15;93632.97;530178;28;873;-40
2023/10/23 00:15:02;;;;;;;6.60;3.47;;;;;;;14.47;58.11;93635.75;530275;28;1563;-40
2023/10/23 00:15:17;;;;;;;4.93;2.92;;;;;;;14.40;58.10;93628.97;527926;28;871;-40
2023/10/23 00:15:34;;;;;;;5.30;2.97;;;;;;;14.43;58.16;93638.19;527999;28;839;-41
2023/10/23 00:15:49;;;;;;;7.18;3.65;;;;;;;14.43;58.27;93640.97;528027;28;896;-40
2023/10/23 00:16:04;;;;;;;6.70;3.78;;;;;;;14.39;58.24;93635.84;527858;28;943;-40
2023/10/23 00:16:21;;;;;;;7.40;3.30;;;;;;;14.41;58.21;93643.59;527942;28;896;-40
2023/10/23 00:16:36;;;;;;;7.55;3.25;;;;;;;14.39;58.40;93640.66;528005;28;888;-40
2023/10/23 00:16:52;;;;;;;7.33;3.83;;;;;;;14.36;58.40;93636.97;527929;28;980;-40
2023/10/23 00:17:07;;;;;;;8.55;4.28;;;;;;;14.36;58.48;93631.41;528545;28;875;-40
2023/10/23 00:17:22;;;;;;;8.00;4.07;;;;;;;14.36;58.64;93633.44;530262;28;792;-40
2023/10/23 00:17:38;;;;;;;7.50;3.73;;;;;;;14.35;58.73;93635.50;530230;28;827;-40
2023/10/23 00:17:53;;;;;;;9.02;3.58;;;;;;;14.33;58.77;93634.59;530196;28;864;-40
2023/10/23 00:18:09;;;;;;;6.80;3.40;;;;;;;14.34;58.79;93642.34;530029;28;928;-40
2023/10/23 00:18:25;;;;;;;5.83;3.30;;;;;;;14.35;58.84;93645.88;527828;28;1544;-40
2023/10/23 00:18:40;;;;;;;6.45;3.55;;;;;;;14.35;58.87;93641.06;527963;28;904;-40
2023/10/23 00:18:55;;;;;;;6.00;3.65;;;;;;;14.35;58.91;93641.06;527988;28;828;-40
2023/10/23 00:19:11;;;;;;;7.47;3.57;;;;;;;14.35;58.82;93640.31;527940;28;935;-40
2023/10/23 00:19:27;;;;;;;6.70;3.37;;;;;;;14.36;58.96;93645.28;527908;28;954;-40
2023/10/23 00:19:42;;;;;;;5.93;3.30;;;;;;;14.36;58.92;93639.00;527918;28;1209;-40
2023/10/23 00:19:57;;;;;;;5.43;3.40;;;;;;;14.35;58.91;93643.09;527843;28;1910;-40
2023/10/23 00:20:13;;;;;;;11.93;4.07;;;;;;;14.36;58.98;93639.00;528339;28;938;-40
2023/10/23 00:20:28;;;;;;;14.43;4.40;;;;;;;14.28;59.10;93627.19;530267;28;827;-40
2023/10/23 00:20:44;;;;;;;7.05;3.83;;;;;;;14.35;58.92;93635.50;530180;28;803;-40
2023/10/23 00:20:59;;;;;;;5.07;3.53;;;;;;;14.37;59.10;93634.94;530221;28;1120;-40
2023/10/23 00:21:15;;;;;;;9.00;3.70;;;;;;;14.34;59.02;93636.06;530185;28;871;-40
2023/10/23 00:21:31;;;;;;;10.43;3.85;;;;;;;14.36;59.09;93636.97;530287;28;860;-41
2023/10/23 00:21:46;;;;;;;11.17;4.07;;;;;;;14.36;59.24;93631.41;530156;28;965;-40
2023/10/23 00:22:02;;;;;;;12.00;3.95;;;;;;;14.28;59.27;93622.38;530221;28;877;-40
2023/10/23 00:22:17;;;;;;;9.80;4.00;;;;;;;14.36;59.18;93634.19;530129;28;1607;-40
2023/10/23 00:22:32;;;;;;;9.83;4.13;;;;;;;14.35;59.41;93629.22;530230;28;805;-40
2023/10/23 00:22:48;;;;;;;7.60;4.07;;;;;;;14.34;59.44;93631.25;530184;28;1114;-40
2023/10/23 00:23:03;;;;;;;7.00;4.10;;;;;;;14.34;59.36;93633.28;530165;28;853;-40
2023/10/23 00:23:18;;;;;;;6.60;3.63;;;;;;;14.34;59.46;93634.03;530097;28;1661;-40
2023/10/23 00:23:34;;;;;;;6.40;3.60;;;;;;;14.35;59.49;93631.97;530221;28;785;-40
2023/10/23 00:23:50;;;;;;;6.97;3.90;;;;;;;14.31;59.59;93626.81;530152;28;1188;-40
2023/10/23 00:24:05;;;;;;;7.60;4.05;;;;;;;14.35;59.52;93631.97;527949;28;1184;-40
2023/10/23 00:24:21;;;;;;;9.10;4.18;;;;;;;14.35;59.65;93632.72;528685;28;1551;-40
2023/10/23 00:24:37;;;;;;;9.10;4.00;;;;;;;14.36;59.66;93633.44;530227;28;1033;-40
2023/10/23 00:24:52;;;;;;;10.20;3.87;;;;;;;14.37;59.95;93629.38;530246;28;778;-40
2023/10/23 00:25:08;;;;;;;14.00;3.93;;;;;;;14.36;59.92;93625.84;530255;28;781;-40
2023/10/23 00:25:23;;;;;;;14.38;3.95;;;;;;;14.37;59.75;93623.81;530218;28;860;-40
2023/10/23 00:25:39;;;;;;;11.70;3.97;;;;;;;14.36;59.86;93630.66;530230;28;1115;-40
2023/10/23 00:25:54;;;;;;;11.05;4.32;;;;;;;14.33;59.64;93624.22;530179;28;912;-40
2023/10/23 00:26:09;;;;;;;8.93;4.13;;;;;;;14.32;59.63;93633.09;530257;28;860;-40
2023/10/23 00:26:25;;;;;;;9.07;4.27;;;;;;;14.31;59.63;93626.09;530242;28;857;-40
2023/10/23 00:26:41;;;;;;;8.13;4.22;;;;;;;14.30;59.65;93632.94;530203;28;830;-40
2023/10/23 00:26:56;;;;;;;9.13;3.90;;;;;;;14.31;59.81;93631.66;530278;28;793;-40
2023/10/23 00:27:11;;;;;;;11.37;4.40;;;;;;;14.30;59.96;93627.38;530257;28;856;-40
2023/10/23 00:27:27;;;;;;;12.40;4.67;;;;;;;14.31;59.92;93626.09;530155;28;945;-41
2023/10/23 00:27:42;;;;;;;11.25;4.10;;;;;;;14.33;60.00;93631.81;530138;28;916;-40
2023/10/23 00:27:57;;;;;;;8.73;3.50;;;;;;;14.33;59.96;93632.56;530201;28;864;-40
2023/10/23 00:28:13;;;;;;;12.00;3.87;;;;;;;14.34;59.82;93631.25;530119;28;860;-40
2023/10/23 00:28:28;;;;;;;11.32;3.63;;;;;;;14.36;59.71;93630.66;530200;28;1029;-40
2023/10/23 00:28:44;;;;;;;10.17;3.60;;;;;;;14.35;60.01;93624.41;530139;28;920;-40
2023/10/23 00:29:01;;;;;;;8.77;3.88;;;;;;;14.36;59.81;93630.66;530240;28;825;-41
2023/10/23 00:29:16;;;;;;;8.30;4.40;;;;;;;14.36;59.77;93628.63;530199;28;881;-40
2023/10/23 00:29:32;;;;;;;12.77;5.77;;;;;;;14.37;59.73;93632.16;530294;28;785;-41
2023/10/23 00:29:47;;;;;;;16.88;6.72;;;;;;;14.38;59.64;93630.81;530058;28;1245;-40
2023/10/23 00:30:03;;;;;;;16.20;6.73;;;;;;;14.38;59.51;93628.78;530248;28;840;-41
2023/10/23 00:30:18;;;;;;;14.45;7.05;;;;;;;14.38;59.49;93628.06;530127;28;1548;-40
2023/10/23 00:30:35;;;;;;;15.03;7.60;;;;;;;14.38;59.44;93625.28;530236;28;836;-40
2023/10/23 00:30:51;;;;;;;14.52;7.32;;;;;;;14.33;59.63;93617.94;530241;28;869;-41
2023/10/23 00:31:06;;;;;;;13.63;7.20;;;;;;;14.38;59.40;93625.28;530126;28;1220;-41
2023/10/23 00:31:21;;;;;;;18.25;8.43;;;;;;;14.39;59.32;93623.97;530186;28;869;-41
2023/10/23 00:31:37;;;;;;;18.03;8.90;;;;;;;14.36;59.34;93625.09;530149;28;1658;-40
2023/10/23 00:31:52;;;;;;;16.40;8.57;;;;;;;14.39;59.19;93618.44;527959;28;825;-40
2023/10/23 00:32:07;;;;;;;22.17;9.27;;;;;;;14.39;59.33;93624.72;527938;28;1031;-40
2023/10/23 00:32:23;;;;;;;22.53;9.00;;;;;;;14.39;59.11;93627.50;527875;28;845;-40
2023/10/23 00:32:38;;;;;;;19.20;8.07;;;;;;;14.39;59.28;93621.94;527988;28;884;-40
2023/10/23 00:32:53;;;;;;;18.17;7.65;;;;;;;14.37;59.07;93621.03;527889;28;1014;-40
2023/10/23 00:33:09;;;;;;;15.63;7.70;;;;;;;14.39;59.22;93624.72;525893;28;809;-40
2023/10/23 00:33:25;;;;;;;13.63;6.70;;;;;;;14.38;59.12;93623.25;525717;28;912;-40
2023/10/23 00:33:41;;;;;;;11.73;6.13;;;;;;;14.40;59.21;93622.69;526204;28;849;-40
2023/10/23 00:33:57;;;;;;;11.70;6.63;;;;;;;14.41;59.19;93624.16;527870;28;936;-40
2023/10/23 00:34:12;;;;;;;13.27;6.90;;;;;;;14.40;59.18;93617.84;527989;28;932;-40
2023/10/23 00:34:27;;;;;;;16.63;6.93;;;;;;;14.40;58.87;93620.63;527959;28;798;-40
2023/10/23 00:34:43;;;;;;;15.07;6.43;;;;;;;14.40;59.18;93619.91;528001;28;802;-40
2023/10/23 00:34:58;;;;;;;16.23;6.73;;;;;;;14.39;59.15;93621.19;528528;28;817;-40
2023/10/23 00:35:14;;;;;;;16.35;6.88;;;;;;;14.29;59.17;93612.03;530154;28;864;-40
2023/10/23 00:35:29;;;;;;;15.23;6.60;;;;;;;14.38;59.24;93614.16;530204;28;928;-40
2023/10/23 00:35:44;;;;;;;17.27;6.17;;;;;;;14.38;59.28;93617.69;530239;28;864;-40
2023/10/23 00:36:00;;;;;;;17.30;6.00;;;;;;;14.37;59.24;93621.78;530242;28;855;-40
2023/10/23 00:36:15;;;;;;;15.07;6.03;;;;;;;14.32;59.25;93608.84;530148;28;826;-40
2023/10/23 00:36:31;;;;;;;13.47;6.17;;;;;;;14.38;59.37;93620.47;530285;28;845;-40
2023/10/23 00:36:46;;;;;;;12.40;6.22;;;;;;;14.38;59.31;93620.47;530221;28;805;-40
2023/10/23 00:37:01;;;;;;;9.80;5.70;;;;;;;14.39;59.15;93615.66;530220;28;896;-40
2023/10/23 00:37:17;;;;;;;8.90;5.30;;;;;;;14.33;59.15;93609.59;530142;28;876;-40
2023/10/23 00:37:33;;;;;;;9.47;5.33;;;;;;;14.40;59.20;93619.91;530210;28;903;-40
2023/10/23 00:37:49;;;;;;;11.73;4.97;;;;;;;14.40;59.14;93620.63;530209;28;861;-41
2023/10/23 00:38:04;;;;;;;12.93;5.10;;;;;;;14.40;59.18;93617.84;530244;28;833;-40
2023/10/23 00:38:19;;;;;;;13.10;5.93;;;;;;;14.41;59.01;93613.03;530159;28;793;-40
2023/10/23 00:38:35;;;;;;;11.35;5.45;;;;;;;14.42;59.02;93620.78;530230;28;854;-40
2023/10/23 00:38:50;;;;;;;10.77;4.93;;;;;;;14.42;58.79;93620.06;530224;28;844;-40
2023/10/23 00:39:05;;;;;;;14.83;5.30;;;;;;;14.40;58.94;93617.13;530196;28;1063;-40
2023/10/23 00:39:21;;;;;;;17.50;5.38;;;;;;;14.42;58.75;93618.00;530265;28;845;-40
2023/10/23 00:39:36;;;;;;;15.37;5.67;;;;;;;14.42;58.81;93620.78;530120;28;987;-40
2023/10/23 00:39:52;;;;;;;11.87;6.00;;;;;;;14.43;58.75;93619.50;530095;28;1917;-40
2023/10/23 00:40:07;;;;;;;12.50;4.82;;;;;;;14.22;58.73;93590.59;530190;28;880;-41
2023/10/23 00:40:23;;;;;;;12.07;4.43;;;;;;;14.42;58.76;93617.28;530212;28;941;-40
2023/10/23 00:40:38;;;;;;;8.93;4.75;;;;;;;14.44;58.73;93623.03;530203;28;967;-40
2023/10/23 00:40:53;;;;;;;9.27;4.43;;;;;;;14.44;58.67;93623.72;530154;28;865;-41
2023/10/23 00:41:09;;;;;;;10.80;4.80;;;;;;;14.45;58.67;93621.69;530223;28;777;-40
2023/10/23 00:41:24;;;;;;;11.65;4.72;;;;;;;14.45;58.74;93618.91;530185;28;790;-40
2023/10/23 00:41:39;;;;;;;11.60;4.30;;;;;;;14.46;58.67;93620.41;530156;28;947;-40
2023/10/23 00:41:55;;;;;;;10.37;4.27;;;;;;;14.44;58.66;93623.72;527894;28;659;-40
2023/10/23 00:42:10;;;;;;;9.60;4.38;;;;;;;14.43;58.72;93625.06;528001;28;833;-40
2023/10/23 00:42:25;;;;;;;9.47;4.50;;;;;;;14.44;58.80;93623.72;527899;28;881;-40
2023/10/23 00:42:41;;;;;;;10.87;4.90;;;;;;;14.45;58.73;93618.91;527907;28;1320;-41
2023/10/23 00:42:56;;;;;;;10.90;4.82;;;;;;;14.44;58.78;93623.72;527915;28;885;-40
2023/10/23 00:43:21;;;;;;;14.53;4.80;;;;;;;14.47;58.79;93627.41;527300;28;1104;-40
2023/10/23 00:43:37;;;;;;;17.35;5.55;;;;;;;14.48;58.63;93628.16;525765;28;904;-40
2023/10/23 00:43:52;;;;;;;12.20;5.13;;;;;;;14.47;58.61;93627.41;527549;28;869;-40
2023/10/23 00:44:07;;;;;;;9.90;4.90;;;;;;;14.47;58.71;93624.63;528088;28;829;-40
2023/10/23 00:44:23;;;;;;;9.10;4.47;;;;;;;14.37;58.71;93615.47;527986;28;844;-40
2023/10/23 00:44:38;;;;;;;9.63;4.50;;;;;;;14.48;58.67;93630.94;528116;28;798;-40
2023/10/23 00:44:54;;;;;;;9.57;4.73;;;;;;;14.44;58.62;93628.56;528100;28;786;-40
2023/10/23 00:45:09;;;;;;;8.20;4.43;;;;;;;14.47;58.64;93627.41;528036;28;877;-40
2023/10/23 00:45:24;;;;;;;7.00;4.20;;;;;;;14.47;58.59;93632.97;528051;28;1553;-40
2023/10/23 00:45:49;;;;;;;7.27;4.50;;;;;;;14.46;58.60;93628.75;528073;28;882;-40
2023/10/23 00:46:10;;;;;;;11.47;4.67;;;;;;;14.46;58.53;93628.00;528042;28;1015;-40
2023/10/23 00:46:26;;;;;;;14.98;4.85;;;;;;;14.44;58.44;93634.84;525773;28;956;-40
2023/10/23 00:46:42;;;;;;;12.23;4.70;;;;;;;14.40;58.45;93626.19;523750;28;901;-40
2023/10/23 00:46:58;;;;;;;11.32;4.30;;;;;;;14.43;58.46;93627.84;524082;28;861;-40
2023/10/23 00:47:13;;;;;;;13.93;4.83;;;;;;;14.42;58.46;93626.34;524130;28;805;-40
2023/10/23 00:47:28;;;;;;;15.93;5.00;;;;;;;14.42;58.44;93625.63;524126;28;1074;-40
2023/10/23 00:47:44;;;;;;;14.83;4.77;;;;;;;14.41;58.34;93624.88;524107;28;1532;-41
2023/10/23 00:47:59;;;;;;;17.77;4.80;;;;;;;14.41;58.47;93630.44;524081;28;916;-40
2023/10/23 00:48:15;;;;;;;11.95;4.20;;;;;;;14.41;58.37;93627.66;524484;28;877;-40
2023/10/23 00:48:31;;;;;;;4.67;3.60;;;;;;;14.40;58.28;93631.03;524112;28;904;-40
2023/10/23 00:48:47;;;;;;;9.25;4.10;;;;;;;14.40;58.12;93628.97;524093;28;996;-40
2023/10/23 00:49:03;;;;;;;11.95;4.43;;;;;;;14.39;58.25;93627.50;524190;28;853;-40
2023/10/23 00:49:18;;;;;;;7.63;4.00;;;;;;;14.39;58.14;93629.53;524043;28;888;-40
2023/10/23 00:49:34;;;;;;;7.50;4.13;;;;;;;14.39;58.07;93629.53;524703;28;821;-40
2023/10/23 00:49:49;;;;;;;7.13;3.63;;;;;;;14.38;58.10;93628.78;524128;28;916;-40
2023/10/23 00:50:05;;;;;;;7.43;3.67;;;;;;;14.38;58.09;93626.03;524040;28;992;-40
2023/10/23 00:50:20;;;;;;;8.93;4.03;;;;;;;14.36;57.79;93627.88;524699;28;873;-40
2023/10/23 00:50:36;;;;;;;11.07;4.20;;;;;;;14.37;57.93;93635.66;524081;28;913;-41
2023/10/23 00:50:57;;;;;;;10.73;4.63;;;;;;;14.37;57.98;93627.34;524179;28;901;-40
2023/10/23 00:51:14;;;;;;;8.10;3.75;;;;;;;14.36;57.87;93627.88;524152;28;869;-40
2023/10/23 00:51:30;;;;;;;8.40;3.72;;;;;;;14.36;57.86;93633.44;524102;28;890;-40
2023/10/23 00:51:46;;;;;;;7.72;3.53;;;;;;;14.35;57.98;93634.75;525517;28;852;-40
2023/10/23 00:52:01;;;;;;;6.68;3.25;;;;;;;14.35;57.93;93631.97;524203;28;849;-40
2023/10/23 00:52:17;;;;;;;8.03;3.40;;;;;;;14.33;58.02;93626.25;524064;28;885;-40
2023/10/23 00:52:32;;;;;;;10.70;3.53;;;;;;;14.32;57.93;93633.09;525539;28;826;-40
2023/10/23 00:52:47;;;;;;;8.53;3.50;;;;;;;14.32;58.05;93638.66;526223;28;824;-40
2023/10/23 00:53:03;;;;;;;9.03;3.90;;;;;;;14.31;57.98;93635.16;524054;28;2623;-40
2023/10/23 00:53:20;;;;;;;10.60;4.30;;;;;;;14.32;58.02;93633.09;522019;28;865;-40
2023/10/23 00:53:37;;;;;;;7.80;3.92;;;;;;;14.31;58.03;93634.44;522007;28;870;-40
2023/10/23 00:53:52;;;;;;;7.10;3.60;;;;;;;14.31;57.98;93640.69;520703;28;873;-41
2023/10/23 00:54:08;;;;;;;11.03;3.70;;;;;;;14.31;57.77;93634.44;522040;28;917;-40
2023/10/23 00:54:24;;;;;;;12.07;3.75;;;;;;;14.30;57.80;93636.47;522012;28;1146;-40
2023/10/23 00:54:40;;;;;;;8.25;3.70;;;;;;;14.31;57.87;93628.88;524084;28;1658;-40
2023/10/23 00:54:55;;;;;;;8.13;3.95;;;;;;;14.29;58.03;93629.44;522978;28;778;-41
2023/10/23 00:55:11;;;;;;;8.63;3.77;;;;;;;14.29;57.96;93628.72;525103;28;880;-40
2023/10/23 00:55:27;;;;;;;7.13;3.70;;;;;;;14.30;58.00;93635.72;526119;28;1699;-40
2023/10/23 00:55:44;;;;;;;8.15;4.13;;;;;;;14.29;58.03;93631.50;526740;28;901;-40
2023/10/23 00:56:03;;;;;;;9.85;4.18;;;;;;;14.29;57.95;93632.19;528368;28;841;-40
2023/10/23 00:56:18;;;;;;;9.13;3.60;;;;;;;14.22;57.92;93626.69;528229;28;916;-40
2023/10/23 00:56:34;;;;;;;10.98;3.70;;;;;;;14.27;58.06;93636.84;528202;28;1180;-40
2023/10/23 00:56:50;;;;;;;13.70;3.90;;;;;;;14.26;57.97;93641.66;527579;28;909;-41
2023/10/23 00:57:06;;;;;;;9.57;3.95;;;;;;;14.26;58.06;93636.09;528434;28;920;-40
2023/10/23 00:57:22;;;;;;;8.90;3.88;;;;;;;14.20;57.95;93621.72;528435;28;984;-40
2023/10/23 00:57:37;;;;;;;7.88;3.65;;;;;;;14.25;58.10;93628.34;526196;28;795;-40
2023/10/23 00:57:53;;;;;;;6.73;3.57;;;;;;;14.25;58.03;93636.69;526455;28;2549;-40
2023/10/23 00:58:08;;;;;;;9.00;3.78;;;;;;;14.25;58.03;93636.69;528295;28;987;-40
2023/10/23 00:58:27;;;;;;;11.30;4.10;;;;;;;14.23;58.03;93634.44;528271;28;904;-40
2023/10/23 00:58:42;;;;;;;9.10;3.80;;;;;;;14.25;58.13;93636.69;526126;28;912;-40
2023/10/23 00:58:58;;;;;;;8.50;4.07;;;;;;;14.24;58.07;93638.72;526165;28;902;-40
2023/10/23 00:59:13;;;;;;;8.60;3.88;;;;;;;14.24;58.14;93635.19;524020;28;959;-40
2023/10/23 00:59:30;;;;;;;11.03;3.77;;;;;;;14.23;58.13;93631.69;524073;28;857;-40
2023/10/23 00:59:45;;;;;;;15.15;4.32;;;;;;;14.23;58.06;93636.50;521999;28;1679;-40
2023/10/23 01:00:01;;;;;;;13.43;4.53;;;;;;;14.20;58.13;93627.28;522844;28;2767;-40
2023/10/23 01:00:17;;;;;;;8.82;4.20;;;;;;;14.22;58.28;93629.47;524110;28;789;-40
2023/10/23 01:00:33;;;;;;;13.67;3.93;;;;;;;14.22;58.45;93635.03;524646;28;836;-40
2023/10/23 01:00:48;;;;;;;15.00;4.15;;;;;;;14.20;58.39;93627.28;526255;28;817;-40
2023/10/23 01:01:04;;;;;;;11.77;4.53;;;;;;;14.19;58.69;93630.59;526794;28;966;-40
2023/10/23 01:01:20;;;;;;;10.77;4.32;;;;;;;14.20;58.51;93626.53;528295;28;820;-40
2023/10/23 01:01:35;;;;;;;8.97;3.97;;;;;;;14.20;58.62;93626.53;528249;28;1038;-40
2023/10/23 01:01:51;;;;;;;8.15;4.30;;;;;;;14.18;58.82;93629.16;526219;28;849;-40
2023/10/23 01:02:07;;;;;;;9.37;4.77;;;;;;;14.16;58.99;93635.25;524120;28;853;-40
2023/10/23 01:02:22;;;;;;;8.90;4.25;;;;;;;14.14;59.15;93634.38;524074;28;822;-41
2023/10/23 01:02:37;;;;;;;8.00;3.93;;;;;;;14.09;59.35;93627.00;524109;28;856;-41
2023/10/23 01:02:53;;;;;;;11.50;4.28;;;;;;;14.07;59.40;93629.59;524128;28;841;-40
2023/10/23 01:03:09;;;;;;;11.67;4.30;;;;;;;14.04;59.38;93628.69;524031;28;896;-40
2023/10/23 01:03:25;;;;;;;9.60;4.30;;;;;;;14.04;59.50;93631.47;524087;28;991;-40
2023/10/23 01:03:42;;;;;;;7.20;4.13;;;;;;;14.05;59.50;93626.66;524630;28;829;-40
2023/10/23 01:03:59;;;;;;;7.22;3.90;;;;;;;14.06;59.57;93628.84;526890;28;809;-41
2023/10/23 01:04:16;;;;;;;9.32;3.70;;;;;;;14.07;59.54;93629.59;528204;28;877;-40
2023/10/23 01:04:31;;;;;;;9.82;3.40;;;;;;;14.07;59.56;93630.34;528321;28;1062;-40
2023/10/23 01:04:47;;;;;;;7.70;3.88;;;;;;;14.07;59.57;93626.81;528285;28;904;-40
2023/10/23 01:05:02;;;;;;;8.73;4.10;;;;;;;14.09;59.60;93629.75;529529;27;985;-40
2023/10/23 01:05:18;;;;;;;11.50;4.20;;;;;;;14.09;59.62;93627.00;530521;27;1162;-40
2023/10/23 01:05:33;;;;;;;13.20;4.60;;;;;;;14.05;59.56;93621.84;530593;27;851;-40
2023/10/23 01:05:49;;;;;;;11.63;4.77;;;;;;;14.02;59.51;93627.78;528292;28;868;-40
2023/10/23 01:06:04;;;;;;;11.20;4.35;;;;;;;14.00;59.55;93628.34;526225;28;877;-40
2023/10/23 01:06:20;;;;;;;12.13;3.95;;;;;;;13.98;59.81;93624.66;526126;28;885;-40
2023/10/23 01:06:35;;;;;;;12.70;4.13;;;;;;;13.97;59.82;93626.69;526202;28;809;-40
2023/10/23 01:06:51;;;;;;;9.10;3.90;;;;;;;13.98;59.84;93628.19;526160;28;873;-40
2023/10/23 01:07:06;;;;;;;8.87;3.73;;;;;;;13.94;59.76;93619.53;526151;28;854;-40
2023/10/23 01:07:22;;;;;;;10.93;4.00;;;;;;;13.98;59.79;93624.66;526160;28;928;-40
2023/10/23 01:07:37;;;;;;;7.95;3.40;;;;;;;13.99;59.83;93623.38;526497;28;881;-40
2023/10/23 01:07:52;;;;;;;7.63;3.03;;;;;;;14.00;59.56;93627.63;528662;27;1208;-40
2023/10/23 01:08:08;;;;;;;10.07;3.45;;;;;;;14.01;59.77;93626.31;528308;28;844;-40
2023/10/23 01:08:24;;;;;;;10.73;3.60;;;;;;;14.01;59.59;93623.53;528255;28;871;-40
2023/10/23 01:08:39;;;;;;;11.70;3.97;;;;;;;14.01;59.55;93624.25;526051;28;1584;-40
2023/10/23 01:08:54;;;;;;;20.93;5.60;;;;;;;13.97;59.36;93620.44;526181;28;972;-40
2023/10/23 01:09:10;;;;;;;18.20;5.23;;;;;;;13.99;59.39;93623.38;526262;28;879;-40
2023/10/23 01:09:25;;;;;;;7.30;3.70;;;;;;;13.98;59.39;93622.63;526092;28;924;-40
2023/10/23 01:09:41;;;;;;;9.87;3.83;;;;;;;13.98;59.39;93619.13;526237;28;864;-40
2023/10/23 01:09:56;;;;;;;9.98;3.75;;;;;;;13.98;59.32;93621.91;526438;28;927;-40
2023/10/23 01:10:11;;;;;;;7.70;3.47;;;;;;;13.98;59.39;93619.13;526149;28;2327;-40
2023/10/23 01:10:27;;;;;;;6.77;3.53;;;;;;;13.97;59.31;93621.16;526181;28;864;-40
2023/10/23 01:10:42;;;;;;;10.65;3.92;;;;;;;13.98;59.46;93621.91;526159;28;833;-40
2023/10/23 01:10:59;;;;;;;9.70;3.70;;;;;;;13.98;59.23;93622.63;526147;28;817;-40
2023/10/23 01:11:14;;;;;;;6.60;3.58;;;;;;;13.95;59.29;93620.97;526171;28;888;-40
2023/10/23 01:11:30;;;;;;;6.90;4.00;;;;;;;13.97;59.38;93623.94;526181;28;912;-40
2023/10/23 01:11:45;;;;;;;11.60;3.92;;;;;;;13.97;59.37;93620.44;526182;28;769;-40
2023/10/23 01:12:00;;;;;;;10.47;3.73;;;;;;;13.97;59.41;93626.69;526643;28;867;-40
2023/10/23 01:12:16;;;;;;;5.77;3.73;;;;;;;13.96;59.41;93630.06;528247;28;865;-40
2023/10/23 01:12:31;;;;;;;9.50;4.00;;;;;;;13.95;59.59;93631.34;528334;28;879;-40
2023/10/23 01:12:46;;;;;;;9.63;3.77;;;;;;;13.90;59.65;93621.97;528630;28;1007;-40
2023/10/23 01:13:09;;;;;;;6.50;3.40;;;;;;;13.89;59.81;93623.25;530541;27;907;-40
2023/10/23 01:13:27;;;;;;;8.40;3.30;;;;;;;13.91;59.84;93628.22;530543;27;876;-40
2023/10/23 01:13:42;;;;;;;10.00;3.58;;;;;;;13.92;60.09;93624.16;530486;27;1043;-40
2023/10/23 01:13:58;;;;;;;10.17;3.50;;;;;;;13.92;60.00;93622.13;530598;27;813;-40
2023/10/23 01:14:13;;;;;;;7.47;3.37;;;;;;;13.93;59.96;93628.41;530515;27;851;-40
2023/10/23 01:14:29;;;;;;;7.45;3.95;;;;;;;13.93;59.87;93628.41;530546;27;781;-40
2023/10/23 01:14:44;;;;;;;7.03;3.90;;;;;;;13.93;59.91;93623.59;530525;27;891;-40
2023/10/23 01:14:59;;;;;;;6.03;3.60;;;;;;;13.94;59.93;93627.09;530499;27;939;-40
2023/10/23 01:15:15;;;;;;;6.40;3.43;;;;;;;13.93;59.91;93629.13;530578;27;777;-40
2023/10/23 01:15:30;;;;;;;7.93;3.60;;;;;;;13.94;59.93;93627.09;530638;27;844;-40
2023/10/23 01:15:45;;;;;;;7.78;3.70;;;;;;;13.94;59.81;93624.34;530530;27;1075;-40
2023/10/23 01:16:01;;;;;;;10.37;3.80;;;;;;;13.95;59.96;93623.00;530579;27;840;-40